createdAt,value
2022-08-07T00:00:14.279Z,1011.88
2022-08-07T00:01:44.588Z,1011.86
2022-08-07T00:02:36.593Z,1011.88
2022-08-07T00:03:27.391Z,1011.88
2022-08-07T00:04:31.824Z,1011.84
2022-08-07T00:05:37.089Z,1011.90
2022-08-07T00:06:41.055Z,1011.86
2022-08-07T00:07:44.851Z,1011.85
2022-08-07T00:08:49.252Z,1011.83
2022-08-07T00:10:04.859Z,1011.86
2022-08-07T00:10:58.368Z,1011.86
2022-08-07T00:12:02.342Z,1011.90
2022-08-07T00:13:23.450Z,1011.89
2022-08-07T00:14:11.093Z,1011.88
2022-08-07T00:15:15.460Z,1011.86
2022-08-07T00:16:21.537Z,1011.84
2022-08-07T00:17:24.195Z,1011.84
2022-08-07T00:18:28.591Z,1011.86
2022-08-07T00:19:59.605Z,1011.85
2022-08-07T00:20:37.324Z,1011.89
2022-08-07T00:21:56.396Z,1011.90
2022-08-07T00:22:51.630Z,1011.89
2022-08-07T00:23:50.443Z,1011.88
2022-08-07T00:24:54.815Z,1011.90
2022-08-07T00:26:06.814Z,1011.83
2022-08-07T00:27:07.469Z,1011.85
2022-08-07T00:28:07.922Z,1011.85
2022-08-07T00:29:12.315Z,1011.81
2022-08-07T00:30:27.708Z,1011.78
2022-08-07T00:31:21.056Z,1011.80
2022-08-07T00:32:28.377Z,1011.80
2022-08-07T00:33:29.824Z,1011.79
2022-08-07T00:34:35.368Z,1011.77
2022-08-07T00:35:38.587Z,1011.82
2022-08-07T00:36:43.604Z,1011.82
2022-08-07T00:37:48.315Z,1011.79
2022-08-07T00:38:51.756Z,1011.81
2022-08-07T00:39:56.149Z,1011.81
2022-08-07T00:41:00.466Z,1011.80
2022-08-07T00:42:05.469Z,1011.79
2022-08-07T00:43:09.906Z,1011.77
2022-08-07T00:44:15.200Z,1011.77
2022-08-07T00:45:18.007Z,1011.76
2022-08-07T00:46:22.463Z,1011.74
2022-08-07T00:48:08.158Z,1011.76
2022-08-07T00:48:32.250Z,1011.76
2022-08-07T00:50:20.545Z,1011.75
2022-08-07T00:50:43.814Z,1011.73
2022-08-07T00:51:58.196Z,1011.77
2022-08-07T00:52:48.654Z,1011.76
2022-08-07T00:53:55.246Z,1011.72
2022-08-07T00:54:57.417Z,1011.73
2022-08-07T00:56:03.537Z,1011.74
2022-08-07T00:57:06.169Z,1011.74
2022-08-07T00:58:10.529Z,1011.73
2022-08-07T00:59:14.930Z,1011.72
2022-08-07T01:00:19.305Z,1011.70
2022-08-07T01:01:23.744Z,1011.73
2022-08-07T01:02:29.562Z,1011.71
2022-08-07T01:03:56.734Z,1011.72
2022-08-07T01:04:42.987Z,1011.69
2022-08-07T01:05:41.208Z,1011.71
2022-08-07T01:06:45.575Z,1011.68
2022-08-07T01:07:49.942Z,1011.66
2022-08-07T01:08:55.657Z,1011.65
2022-08-07T01:10:06.619Z,1011.65
2022-08-07T01:12:08.933Z,1011.64
2022-08-07T01:12:28.708Z,1011.63
2022-08-07T01:13:11.832Z,1011.66
2022-08-07T01:14:16.730Z,1011.64
2022-08-07T01:15:20.615Z,1011.62
2022-08-07T01:16:30.250Z,1011.64
2022-08-07T01:17:30.491Z,1011.64
2022-08-07T01:18:34.871Z,1011.63
2022-08-07T01:19:39.929Z,1011.62
2022-08-07T01:20:43.650Z,1011.63
2022-08-07T01:21:48.023Z,1011.65
2022-08-07T01:23:00.766Z,1011.64
2022-08-07T01:23:56.814Z,1011.62
2022-08-07T01:25:01.182Z,1011.62
2022-08-07T01:26:05.555Z,1011.60
2022-08-07T01:27:19.879Z,1011.64
2022-08-07T01:28:14.314Z,1011.63
2022-08-07T01:29:18.715Z,1011.61
2022-08-07T01:30:27.198Z,1011.64
2022-08-07T01:31:27.479Z,1011.62
2022-08-07T01:32:31.847Z,1011.64
2022-08-07T01:33:56.201Z,1011.61
2022-08-07T01:34:40.615Z,1011.60
2022-08-07T01:35:54.551Z,1011.61
2022-08-07T01:36:52.967Z,1011.60
2022-08-07T01:37:53.765Z,1011.58
2022-08-07T01:38:58.170Z,1011.57
2022-08-07T01:40:02.564Z,1011.59
2022-08-07T01:41:06.916Z,1011.57
2022-08-07T01:42:38.114Z,1011.59
2022-08-07T01:43:15.668Z,1011.58
2022-08-07T01:44:20.105Z,1011.56
2022-08-07T01:45:37.393Z,1011.54
2022-08-07T01:46:28.835Z,1011.53
2022-08-07T01:48:29.629Z,1011.52
2022-08-07T01:48:41.051Z,1011.55
2022-08-07T01:49:41.979Z,1011.53
2022-08-07T01:50:46.359Z,1011.51
2022-08-07T01:52:02.364Z,1011.48
2022-08-07T01:52:55.098Z,1011.47
2022-08-07T01:54:12.021Z,1011.48
2022-08-07T01:55:03.944Z,1011.49
2022-08-07T01:56:08.238Z,1011.45
2022-08-07T01:57:24.212Z,1011.46
2022-08-07T01:58:27.351Z,1011.47
2022-08-07T01:59:21.408Z,1011.44
2022-08-07T02:00:28.645Z,1011.42
2022-08-07T02:01:59.897Z,1011.44
2022-08-07T02:03:12.462Z,1011.48
2022-08-07T02:03:49.089Z,1011.45
2022-08-07T02:04:52.519Z,1011.45
2022-08-07T02:05:59.815Z,1011.39
2022-08-07T02:06:52.021Z,1011.42
2022-08-07T02:07:56.410Z,1011.42
2022-08-07T02:09:00.780Z,1011.42
2022-08-07T02:10:05.196Z,1011.38
2022-08-07T02:11:10.453Z,1011.42
2022-08-07T02:12:13.947Z,1011.36
2022-08-07T02:13:18.321Z,1011.38
2022-08-07T02:14:35.697Z,1011.40
2022-08-07T02:15:28.008Z,1011.39
2022-08-07T02:16:33.486Z,1011.42
2022-08-07T02:17:35.944Z,1011.44
2022-08-07T02:18:47.117Z,1011.42
2022-08-07T02:20:06.898Z,1011.43
2022-08-07T02:20:49.026Z,1011.41
2022-08-07T02:21:55.975Z,1011.41
2022-08-07T02:22:59.880Z,1011.42
2022-08-07T02:24:02.141Z,1011.40
2022-08-07T02:25:07.026Z,1011.42
2022-08-07T02:26:32.424Z,1011.40
2022-08-07T02:27:15.304Z,1011.40
2022-08-07T02:28:24.373Z,1011.38
2022-08-07T02:29:24.054Z,1011.38
2022-08-07T02:30:28.456Z,1011.38
2022-08-07T02:31:32.887Z,1011.40
2022-08-07T02:32:39.368Z,1011.36
2022-08-07T02:34:01.515Z,1011.37
2022-08-07T02:34:48.975Z,1011.34
2022-08-07T02:36:28.415Z,1011.37
2022-08-07T02:36:54.846Z,1011.34
2022-08-07T02:37:59.218Z,1011.38
2022-08-07T02:39:09.441Z,1011.39
2022-08-07T02:40:31.146Z,1011.37
2022-08-07T02:41:12.405Z,1011.36
2022-08-07T02:42:16.750Z,1011.34
2022-08-07T02:43:21.116Z,1011.35
2022-08-07T02:44:27.661Z,1011.37
2022-08-07T02:46:00.420Z,1011.33
2022-08-07T02:46:34.286Z,1011.32
2022-08-07T02:47:48.878Z,1011.30
2022-08-07T02:48:47.083Z,1011.23
2022-08-07T02:49:59.028Z,1011.29
2022-08-07T02:50:51.836Z,1011.23
2022-08-07T02:51:56.188Z,1011.27
2022-08-07T02:53:03.460Z,1011.26
2022-08-07T02:54:04.938Z,1011.26
2022-08-07T02:55:27.402Z,1011.28
2022-08-07T02:56:21.098Z,1011.26
2022-08-07T02:57:18.087Z,1011.26
2022-08-07T02:58:22.462Z,1011.26
2022-08-07T02:59:27.408Z,1011.27
2022-08-07T03:00:31.479Z,1011.25
2022-08-07T03:01:39.988Z,1011.25
2022-08-07T03:02:41.961Z,1011.21
2022-08-07T03:03:50.193Z,1011.25
2022-08-07T03:04:49.010Z,1011.23
2022-08-07T03:05:53.646Z,1011.26
2022-08-07T03:06:57.780Z,1011.23
2022-08-07T03:08:06.817Z,1011.20
2022-08-07T03:09:06.529Z,1011.21
2022-08-07T03:10:10.901Z,1011.21
2022-08-07T03:11:15.302Z,1011.23
2022-08-07T03:12:22.234Z,1011.22
2022-08-07T03:13:24.051Z,1011.25
2022-08-07T03:14:28.427Z,1011.25
2022-08-07T03:15:47.707Z,1011.24
2022-08-07T03:16:38.431Z,1011.25
2022-08-07T03:17:53.576Z,1011.26
2022-08-07T03:18:45.932Z,1011.26
2022-08-07T03:19:55.172Z,1011.25
2022-08-07T03:20:54.693Z,1011.25
2022-08-07T03:21:59.092Z,1011.24
2022-08-07T03:23:03.463Z,1011.27
2022-08-07T03:24:19.245Z,1011.25
2022-08-07T03:25:12.225Z,1011.25
2022-08-07T03:26:23.595Z,1011.23
2022-08-07T03:27:29.913Z,1011.22
2022-08-07T03:28:38.267Z,1011.22
2022-08-07T03:29:29.752Z,1011.19
2022-08-07T03:30:34.122Z,1011.16
2022-08-07T03:31:43.262Z,1011.14
2022-08-07T03:32:49.016Z,1011.16
2022-08-07T03:33:47.274Z,1011.15
2022-08-07T03:35:16.864Z,1011.17
2022-08-07T03:35:56.016Z,1011.18
2022-08-07T03:37:00.420Z,1011.21
2022-08-07T03:38:04.910Z,1011.21
2022-08-07T03:39:09.197Z,1011.22
2022-08-07T03:40:15.450Z,1011.26
2022-08-07T03:41:17.915Z,1011.21
2022-08-07T03:42:22.316Z,1011.25
2022-08-07T03:43:26.797Z,1011.22
2022-08-07T03:44:34.485Z,1011.21
2022-08-07T03:45:39.602Z,1011.22
2022-08-07T03:47:10.863Z,1011.19
2022-08-07T03:47:47.815Z,1011.20
2022-08-07T03:49:02.511Z,1011.21
2022-08-07T03:49:53.611Z,1011.25
2022-08-07T03:50:57.634Z,1011.25
2022-08-07T03:52:01.878Z,1011.25
2022-08-07T03:53:06.887Z,1011.25
2022-08-07T03:54:36.508Z,1011.24
2022-08-07T03:55:14.882Z,1011.28
2022-08-07T03:56:19.257Z,1011.28
2022-08-07T03:58:33.518Z,1011.25
2022-08-07T03:59:05.418Z,1011.27
2022-08-07T03:59:32.427Z,1011.26
2022-08-07T04:00:37.009Z,1011.26
2022-08-07T04:01:45.167Z,1011.25
2022-08-07T04:02:47.302Z,1011.22
2022-08-07T04:03:55.155Z,1011.21
2022-08-07T04:04:54.339Z,1011.24
2022-08-07T04:05:59.891Z,1011.23
2022-08-07T04:07:03.099Z,1011.25
2022-08-07T04:08:07.501Z,1011.24
2022-08-07T04:09:15.687Z,1011.28
2022-08-07T04:10:19.751Z,1011.26
2022-08-07T04:12:26.518Z,1011.28
2022-08-07T04:12:28.983Z,1011.27
2022-08-07T04:13:29.422Z,1011.23
2022-08-07T04:14:38.134Z,1011.22
2022-08-07T04:15:38.170Z,1011.21
2022-08-07T04:16:43.005Z,1011.22
2022-08-07T04:18:58.262Z,1011.20
2022-08-07T04:18:59.110Z,1011.19
2022-08-07T04:19:55.732Z,1011.22
2022-08-07T04:21:00.142Z,1011.19
2022-08-07T04:22:08.713Z,1011.21
2022-08-07T04:23:08.920Z,1011.21
2022-08-07T04:24:30.742Z,1011.23
2022-08-07T04:25:17.670Z,1011.21
2022-08-07T04:26:22.172Z,1011.24
2022-08-07T04:27:26.779Z,1011.21
2022-08-07T04:28:30.831Z,1011.22
2022-08-07T04:29:40.540Z,1011.24
2022-08-07T04:30:55.247Z,1011.25
2022-08-07T04:32:03.451Z,1011.24
2022-08-07T04:32:48.437Z,1011.21
2022-08-07T04:33:54.821Z,1011.26
2022-08-07T04:34:57.104Z,1011.22
2022-08-07T04:36:01.475Z,1011.18
2022-08-07T04:37:07.952Z,1011.17
2022-08-07T04:38:11.424Z,1011.19
2022-08-07T04:39:14.645Z,1011.19
2022-08-07T04:40:19.728Z,1011.22
2022-08-07T04:41:23.365Z,1011.23
2022-08-07T04:42:28.695Z,1011.25
2022-08-07T04:44:12.566Z,1011.26
2022-08-07T05:00:09.949Z,1011.32
2022-08-07T05:00:59.546Z,1011.35
2022-08-07T05:02:03.898Z,1011.37
2022-08-07T05:03:31.163Z,1011.30
2022-08-07T05:04:17.802Z,1011.33
2022-08-07T05:05:52.887Z,1011.31
2022-08-07T05:06:21.499Z,1011.30
2022-08-07T05:07:30.452Z,1011.35
2022-08-07T05:08:59.094Z,1011.33
2022-08-07T05:09:45.552Z,1011.35
2022-08-07T05:10:39.045Z,1011.33
2022-08-07T05:11:57.103Z,1011.35
2022-08-07T05:12:53.686Z,1011.34
2022-08-07T05:14:53.106Z,1011.33
2022-08-07T05:15:03.289Z,1011.35
2022-08-07T05:16:04.817Z,1011.41
2022-08-07T05:17:05.887Z,1011.38
2022-08-07T05:18:10.363Z,1011.44
2022-08-07T05:19:14.090Z,1011.38
2022-08-07T05:20:18.461Z,1011.37
2022-08-07T05:21:59.571Z,1011.33
2022-08-07T05:22:27.809Z,1011.36
2022-08-07T05:23:31.631Z,1011.36
2022-08-07T05:24:40.703Z,1011.39
2022-08-07T05:26:10.549Z,1011.37
2022-08-07T05:26:46.332Z,1011.36
2022-08-07T05:28:02.872Z,1011.31
2022-08-07T05:28:53.501Z,1011.31
2022-08-07T05:29:57.881Z,1011.33
2022-08-07T05:31:02.253Z,1011.31
2022-08-07T05:32:06.622Z,1011.28
2022-08-07T05:33:10.989Z,1011.31
2022-08-07T05:34:15.846Z,1011.32
2022-08-07T05:35:23.755Z,1011.37
2022-08-07T05:36:30.552Z,1011.40
2022-08-07T05:37:28.726Z,1011.44
2022-08-07T05:39:01.105Z,1011.43
2022-08-07T05:40:05.988Z,1011.43
2022-08-07T05:40:42.796Z,1011.45
2022-08-07T05:42:02.882Z,1011.45
2022-08-07T05:42:55.716Z,1011.45
2022-08-07T05:44:11.828Z,1011.46
2022-08-07T05:45:14.587Z,1011.49
2022-08-07T05:46:03.514Z,1011.47
2022-08-07T05:47:17.785Z,1011.50
2022-08-07T05:48:12.257Z,1011.46
2022-08-07T05:49:17.332Z,1011.50
2022-08-07T05:50:21.025Z,1011.56
2022-08-07T05:51:25.397Z,1011.56
2022-08-07T05:52:32.482Z,1011.56
2022-08-07T05:54:12.423Z,1011.54
2022-08-07T05:54:44.453Z,1011.48
2022-08-07T05:56:03.099Z,1011.48
2022-08-07T05:56:47.251Z,1011.49
2022-08-07T05:57:51.614Z,1011.47
2022-08-07T05:58:55.997Z,1011.46
2022-08-07T06:00:01.421Z,1011.48
2022-08-07T06:01:05.037Z,1011.49
2022-08-07T06:02:09.198Z,1011.51
2022-08-07T06:03:13.478Z,1011.51
2022-08-07T06:04:17.887Z,1011.46
2022-08-07T06:05:28.227Z,1011.50
2022-08-07T06:06:29.931Z,1011.49
2022-08-07T06:08:13.748Z,1011.42
2022-08-07T06:08:39.211Z,1011.43
2022-08-07T06:09:44.882Z,1011.43
2022-08-07T06:10:44.142Z,1011.43
2022-08-07T06:11:48.509Z,1011.44
2022-08-07T06:12:52.888Z,1011.50
2022-08-07T06:14:12.889Z,1011.45
2022-08-07T06:15:05.300Z,1011.49
2022-08-07T06:16:06.010Z,1011.49
2022-08-07T06:17:10.389Z,1011.51
2022-08-07T06:18:14.748Z,1011.53
2022-08-07T06:19:47.796Z,1011.57
2022-08-07T06:20:31.863Z,1011.52
2022-08-07T06:22:15.903Z,1011.52
2022-08-07T06:22:36.881Z,1011.56
2022-08-07T06:24:37.748Z,1011.54
2022-08-07T06:24:57.071Z,1011.55
2022-08-07T06:25:54.675Z,1011.60
2022-08-07T06:26:49.721Z,1011.55
2022-08-07T06:28:01.117Z,1011.56
2022-08-07T06:28:58.958Z,1011.56
2022-08-07T06:30:02.852Z,1011.56
2022-08-07T06:31:07.221Z,1011.57
2022-08-07T06:32:13.450Z,1011.55
2022-08-07T06:33:16.843Z,1011.55
2022-08-07T06:34:20.751Z,1011.55
2022-08-07T06:35:24.733Z,1011.56
2022-08-07T06:36:35.227Z,1011.57
2022-08-07T06:37:44.271Z,1011.53
2022-08-07T06:38:37.833Z,1011.52
2022-08-07T06:40:13.462Z,1011.56
2022-08-07T06:40:46.666Z,1011.51
2022-08-07T06:42:02.268Z,1011.51
2022-08-07T06:42:55.332Z,1011.51
2022-08-07T06:44:06.565Z,1011.54
2022-08-07T06:45:04.123Z,1011.51
2022-08-07T06:46:12.198Z,1011.51
2022-08-07T06:47:15.272Z,1011.53
2022-08-07T06:48:24.871Z,1011.50
2022-08-07T06:49:21.617Z,1011.46
2022-08-07T06:50:26.006Z,1011.44
2022-08-07T06:51:33.171Z,1011.45
2022-08-07T06:52:36.032Z,1011.44
2022-08-07T06:54:11.814Z,1011.45
2022-08-07T06:55:33.949Z,1011.44
2022-08-07T06:56:01.312Z,1011.43
2022-08-07T06:56:52.264Z,1011.45
2022-08-07T06:57:57.288Z,1011.44
2022-08-07T07:00:13.579Z,1011.43
2022-08-07T07:00:14.717Z,1011.42
2022-08-07T07:01:09.780Z,1011.43
2022-08-07T07:02:14.304Z,1011.41
2022-08-07T07:03:18.550Z,1011.43
2022-08-07T07:04:28.465Z,1011.39
2022-08-07T07:06:04.074Z,1011.38
2022-08-07T07:06:31.647Z,1011.35
2022-08-07T07:08:00.170Z,1011.36
2022-08-07T07:08:46.656Z,1011.38
2022-08-07T07:09:45.634Z,1011.34
2022-08-07T07:10:56.382Z,1011.36
2022-08-07T07:12:08.960Z,1011.36
2022-08-07T07:12:58.778Z,1011.34
2022-08-07T07:14:03.138Z,1011.35
2022-08-07T07:15:08.603Z,1011.35
2022-08-07T07:16:11.907Z,1011.34
2022-08-07T07:17:16.350Z,1011.31
2022-08-07T07:18:47.043Z,1011.32
2022-08-07T07:19:55.578Z,1011.34
2022-08-07T07:20:29.417Z,1011.34
2022-08-07T07:21:40.524Z,1011.32
2022-08-07T07:24:05.502Z,1011.28
2022-08-07T07:24:08.775Z,1011.29
2022-08-07T07:24:57.002Z,1011.26
2022-08-07T07:26:34.279Z,1011.27
2022-08-07T07:26:55.670Z,1011.23
2022-08-07T07:28:03.509Z,1011.25
2022-08-07T07:29:57.078Z,1011.26
2022-08-07T07:30:12.244Z,1011.27
2022-08-07T07:31:13.160Z,1011.27
2022-08-07T07:32:17.542Z,1011.24
2022-08-07T07:33:21.893Z,1011.22
2022-08-07T07:34:30.634Z,1011.21
2022-08-07T07:35:33.487Z,1011.19
2022-08-07T07:36:35.039Z,1011.16
2022-08-07T07:37:45.411Z,1011.10
2022-08-07T07:38:46.076Z,1011.10
2022-08-07T07:39:54.793Z,1011.12
2022-08-07T07:40:52.511Z,1011.11
2022-08-07T07:42:13.270Z,1011.09
2022-08-07T07:43:11.579Z,1011.13
2022-08-07T07:44:16.775Z,1011.08
2022-08-07T07:45:10.062Z,1011.07
2022-08-07T07:46:37.731Z,1011.05
2022-08-07T07:47:43.033Z,1011.04
2022-08-07T07:48:35.386Z,1011.06
2022-08-07T07:50:35.337Z,1011.05
2022-08-07T07:50:38.724Z,1011.06
2022-08-07T07:51:58.084Z,1011.03
2022-08-07T07:52:40.684Z,1011.05
2022-08-07T07:53:52.596Z,1011.06
2022-08-07T07:54:51.351Z,1011.05
2022-08-07T07:55:54.648Z,1011.00
2022-08-07T07:56:58.186Z,1011.04
2022-08-07T07:58:02.544Z,1011.04
2022-08-07T07:59:06.913Z,1011.03
2022-08-07T08:00:11.276Z,1011.02
2022-08-07T08:02:02.856Z,1010.99
2022-08-07T08:02:20.042Z,1010.98
2022-08-07T08:04:10.101Z,1010.98
2022-08-07T08:04:28.834Z,1010.98
2022-08-07T08:05:42.751Z,1010.97
2022-08-07T08:06:37.526Z,1010.99
2022-08-07T08:07:42.335Z,1011.00
2022-08-07T08:08:46.256Z,1010.96
2022-08-07T08:09:52.233Z,1010.95
2022-08-07T08:10:55.003Z,1010.95
2022-08-07T08:12:03.861Z,1010.96
2022-08-07T08:13:03.747Z,1010.93
2022-08-07T08:14:08.107Z,1010.95
2022-08-07T08:15:12.478Z,1010.94
2022-08-07T08:16:16.864Z,1010.93
2022-08-07T08:17:57.422Z,1010.92
2022-08-07T08:18:25.606Z,1010.90
2022-08-07T08:20:16.994Z,1010.93
2022-08-07T08:20:34.320Z,1010.90
2022-08-07T08:22:00.745Z,1010.89
2022-08-07T08:22:54.185Z,1010.84
2022-08-07T08:23:47.439Z,1010.82
2022-08-07T08:24:57.355Z,1010.83
2022-08-07T08:25:56.290Z,1010.84
2022-08-07T08:27:00.559Z,1010.81
2022-08-07T08:28:04.933Z,1010.81
2022-08-07T08:29:09.288Z,1010.80
2022-08-07T08:30:17.555Z,1010.84
2022-08-07T08:31:22.755Z,1010.85
2022-08-07T08:32:25.167Z,1010.84
2022-08-07T08:33:28.818Z,1010.85
2022-08-07T08:34:31.141Z,1010.84
2022-08-07T08:35:39.411Z,1010.82
2022-08-07T08:36:39.890Z,1010.79
2022-08-07T08:38:00.902Z,1010.78
2022-08-07T08:38:48.632Z,1010.78
2022-08-07T08:39:58.349Z,1010.79
2022-08-07T08:40:57.361Z,1010.81
2022-08-07T08:42:01.741Z,1010.77
2022-08-07T08:43:06.112Z,1010.78
2022-08-07T08:44:10.471Z,1010.78
2022-08-07T08:45:15.366Z,1010.74
2022-08-07T08:46:20.351Z,1010.72
2022-08-07T08:47:25.242Z,1010.71
2022-08-07T08:48:28.452Z,1010.69
2022-08-07T08:49:32.979Z,1010.70
2022-08-07T08:50:39.991Z,1010.69
2022-08-07T08:52:12.683Z,1010.69
2022-08-07T08:52:53.875Z,1010.67
2022-08-07T08:53:49.903Z,1010.69
2022-08-07T08:54:54.262Z,1010.68
2022-08-07T08:55:59.300Z,1010.70
2022-08-07T08:57:03.039Z,1010.70
2022-08-07T08:58:13.067Z,1010.71
2022-08-07T08:59:13.976Z,1010.71
2022-08-07T09:00:16.112Z,1010.69
2022-08-07T09:01:20.520Z,1010.72
2022-08-07T09:02:36.754Z,1010.69
2022-08-07T09:03:48.109Z,1010.73
2022-08-07T09:04:33.602Z,1010.69
2022-08-07T09:05:38.135Z,1010.67
2022-08-07T09:06:42.707Z,1010.66
2022-08-07T09:07:57.456Z,1010.66
2022-08-07T09:08:51.105Z,1010.66
2022-08-07T09:09:56.729Z,1010.60
2022-08-07T09:10:59.875Z,1010.67
2022-08-07T09:12:31.412Z,1010.64
2022-08-07T09:13:08.597Z,1010.64
2022-08-07T09:14:12.964Z,1010.65
2022-08-07T09:16:22.155Z,1010.60
2022-08-07T09:16:29.827Z,1010.62
2022-08-07T09:17:26.247Z,1010.63
2022-08-07T09:18:30.446Z,1010.62
2022-08-07T09:19:51.168Z,1010.61
2022-08-07T09:20:39.197Z,1010.63
2022-08-07T09:22:09.894Z,1010.60
2022-08-07T09:24:31.602Z,1010.61
2022-08-07T09:24:33.254Z,1010.61
2022-08-07T09:24:59.605Z,1010.62
2022-08-07T09:26:01.051Z,1010.62
2022-08-07T09:27:11.837Z,1010.63
2022-08-07T09:30:01.981Z,1010.60
2022-08-07T09:30:06.370Z,1010.60
2022-08-07T09:30:25.493Z,1010.60
2022-08-07T09:31:22.897Z,1010.60
2022-08-07T09:32:27.281Z,1010.62
2022-08-07T09:33:52.961Z,1010.55
2022-08-07T09:34:36.001Z,1010.49
2022-08-07T09:36:05.339Z,1010.47
2022-08-07T09:36:46.906Z,1010.50
2022-08-07T09:37:54.033Z,1010.45
2022-08-07T09:38:53.970Z,1010.46
2022-08-07T09:39:58.167Z,1010.48
2022-08-07T09:41:03.534Z,1010.49
2022-08-07T09:42:07.867Z,1010.52
2022-08-07T09:43:11.032Z,1010.50
2022-08-07T09:44:19.448Z,1010.54
2022-08-07T09:47:25.317Z,1010.46
2022-08-07T09:47:52.192Z,1010.49
2022-08-07T09:47:59.059Z,1010.46
2022-08-07T09:48:43.917Z,1010.47
2022-08-07T09:50:01.739Z,1010.45
2022-08-07T09:50:41.656Z,1010.43
2022-08-07T09:52:09.747Z,1010.43
2022-08-07T09:52:51.747Z,1010.41
2022-08-07T09:53:59.322Z,1010.37
2022-08-07T09:54:59.123Z,1010.37
2022-08-07T09:56:05.126Z,1010.36
2022-08-07T09:57:12.972Z,1010.35
2022-08-07T09:58:12.234Z,1010.34
2022-08-07T09:59:17.493Z,1010.32
2022-08-07T10:00:20.976Z,1010.31
2022-08-07T10:01:51.842Z,1010.31
2022-08-07T10:02:31.653Z,1010.28
2022-08-07T10:04:07.013Z,1010.28
2022-08-07T10:04:39.438Z,1010.31
2022-08-07T10:05:59.630Z,1010.32
2022-08-07T10:06:49.193Z,1010.33
2022-08-07T10:07:55.309Z,1010.34
2022-08-07T10:08:56.805Z,1010.29
2022-08-07T10:10:03.050Z,1010.26
2022-08-07T10:11:16.807Z,1010.27
2022-08-07T10:12:18.122Z,1010.24
2022-08-07T10:13:29.776Z,1010.25
2022-08-07T10:14:23.057Z,1010.16
2022-08-07T10:15:23.035Z,1010.09
2022-08-07T10:16:27.440Z,1010.14
2022-08-07T10:18:01.759Z,1010.10
2022-08-07T10:18:36.234Z,1010.04
2022-08-07T10:19:40.594Z,1010.13
2022-08-07T10:20:44.975Z,1010.14
2022-08-07T10:22:02.788Z,1010.06
2022-08-07T10:22:53.698Z,1010.08
2022-08-07T10:24:06.893Z,1010.10
2022-08-07T10:25:02.467Z,1010.04
2022-08-07T10:26:06.887Z,1010.00
2022-08-07T10:27:11.267Z,1010.03
2022-08-07T10:28:15.739Z,1010.01
2022-08-07T10:29:20.035Z,1010.03
2022-08-07T10:30:24.933Z,1010.01
2022-08-07T10:31:31.530Z,1009.95
2022-08-07T10:32:52.275Z,1009.96
2022-08-07T10:34:06.389Z,1009.95
2022-08-07T10:34:41.912Z,1009.92
2022-08-07T10:35:55.811Z,1009.92
2022-08-07T10:36:50.671Z,1009.95
2022-08-07T10:38:09.896Z,1009.95
2022-08-07T10:38:59.445Z,1009.90
2022-08-07T10:40:08.870Z,1009.88
2022-08-07T10:41:08.170Z,1009.91
2022-08-07T10:42:21.200Z,1009.91
2022-08-07T10:43:19.372Z,1009.91
2022-08-07T10:44:37.710Z,1009.93
2022-08-07T10:45:45.012Z,1009.92
2022-08-07T10:46:30.100Z,1009.92
2022-08-07T10:47:54.446Z,1009.89
2022-08-07T10:48:39.236Z,1009.87
2022-08-07T10:49:49.832Z,1009.89
2022-08-07T10:50:50.098Z,1009.91
2022-08-07T10:52:02.121Z,1009.89
2022-08-07T10:52:56.388Z,1009.82
2022-08-07T10:54:00.751Z,1009.85
2022-08-07T10:55:20.750Z,1009.82
2022-08-07T10:56:09.612Z,1009.81
2022-08-07T10:57:13.891Z,1009.79
2022-08-07T10:58:18.282Z,1009.76
2022-08-07T10:59:22.655Z,1009.81
2022-08-07T11:00:39.614Z,1009.80
2022-08-07T11:01:35.477Z,1009.80
2022-08-07T11:02:35.850Z,1009.79
2022-08-07T11:03:52.647Z,1009.79
2022-08-07T11:04:45.548Z,1009.72
2022-08-07T11:05:50.840Z,1009.68
2022-08-07T11:06:53.374Z,1009.68
2022-08-07T11:08:01.201Z,1009.70
2022-08-07T11:09:02.133Z,1009.66
2022-08-07T11:10:07.058Z,1009.66
2022-08-07T11:11:10.934Z,1009.63
2022-08-07T11:12:18.913Z,1009.65
2022-08-07T11:14:42.522Z,1009.63
2022-08-07T11:14:56.859Z,1009.65
2022-08-07T11:15:31.932Z,1009.58
2022-08-07T11:16:32.895Z,1009.57
2022-08-07T11:17:43.528Z,1009.55
2022-08-07T11:18:41.679Z,1009.54
2022-08-07T11:19:46.347Z,1009.57
2022-08-07T11:20:50.457Z,1009.57
2022-08-07T11:21:54.865Z,1009.54
2022-08-07T11:22:59.239Z,1009.55
2022-08-07T11:24:03.654Z,1009.57
2022-08-07T11:25:08.027Z,1009.55
2022-08-07T11:26:13.153Z,1009.54
2022-08-07T11:27:16.825Z,1009.53
2022-08-07T11:28:21.196Z,1009.53
2022-08-07T11:29:42.728Z,1009.51
2022-08-07T11:30:41.430Z,1009.43
2022-08-07T11:31:35.355Z,1009.43
2022-08-07T11:32:40.387Z,1009.42
2022-08-07T11:33:58.749Z,1009.42
2022-08-07T11:34:47.560Z,1009.39
2022-08-07T11:35:59.153Z,1009.39
2022-08-07T11:36:56.638Z,1009.37
2022-08-07T11:38:12.433Z,1009.34
2022-08-07T11:39:06.961Z,1009.31
2022-08-07T11:40:09.596Z,1009.34
2022-08-07T11:41:22.390Z,1009.34
2022-08-07T11:42:18.871Z,1009.30
2022-08-07T11:43:29.697Z,1009.30
2022-08-07T11:44:27.059Z,1009.27
2022-08-07T11:45:35.550Z,1009.25
2022-08-07T11:46:36.681Z,1009.26
2022-08-07T11:47:56.312Z,1009.23
2022-08-07T11:49:04.401Z,1009.20
2022-08-07T11:50:25.304Z,1009.24
2022-08-07T11:50:57.967Z,1009.23
2022-08-07T11:51:57.771Z,1009.14
2022-08-07T11:53:02.185Z,1009.21
2022-08-07T11:54:10.410Z,1009.23
2022-08-07T11:55:12.975Z,1009.27
2022-08-07T11:56:26.333Z,1009.25
2022-08-07T11:57:19.764Z,1009.22
2022-08-07T11:58:33.071Z,1009.18
2022-08-07T12:00:10.082Z,1009.17
2022-08-07T12:00:32.995Z,1009.25
2022-08-07T12:01:59.245Z,1009.27
2022-08-07T12:02:41.810Z,1009.25
2022-08-07T12:03:46.471Z,1009.23
2022-08-07T12:04:50.522Z,1009.22
2022-08-07T12:05:54.929Z,1009.22
2022-08-07T12:07:07.963Z,1009.19
2022-08-07T12:08:04.327Z,1009.17
2022-08-07T12:09:08.122Z,1009.19
2022-08-07T12:10:12.658Z,1009.17
2022-08-07T12:11:21.942Z,1009.19
2022-08-07T12:12:21.340Z,1009.23
2022-08-07T12:13:35.417Z,1009.19
2022-08-07T12:14:30.085Z,1009.20
2022-08-07T12:15:46.265Z,1009.21
2022-08-07T12:16:39.204Z,1009.20
2022-08-07T12:17:59.495Z,1009.13
2022-08-07T12:18:47.984Z,1009.16
2022-08-07T12:20:02.613Z,1009.09
2022-08-07T12:20:56.744Z,1009.14
2022-08-07T12:22:39.388Z,1009.08
2022-08-07T12:23:09.053Z,1009.10
2022-08-07T12:24:38.124Z,1009.05
2022-08-07T12:25:26.392Z,1009.05
2022-08-07T12:26:28.647Z,1009.05
2022-08-07T12:27:27.828Z,1009.02
2022-08-07T12:28:31.338Z,1009.02
2022-08-07T12:29:37.686Z,1009.02
2022-08-07T12:30:36.315Z,1009.03
2022-08-07T12:32:02.454Z,1009.03
2022-08-07T12:32:45.127Z,1009.05
2022-08-07T12:34:00.881Z,1008.97
2022-08-07T12:34:55.967Z,1008.97
2022-08-07T12:35:58.441Z,1008.98
2022-08-07T12:37:08.728Z,1009.03
2022-08-07T12:38:09.117Z,1009.01
2022-08-07T12:39:44.087Z,1008.97
2022-08-07T12:40:44.914Z,1008.92
2022-08-07T12:41:20.332Z,1008.90
2022-08-07T12:42:27.776Z,1008.90
2022-08-07T12:44:01.769Z,1008.96
2022-08-07T12:44:33.408Z,1009.00
2022-08-07T12:45:37.780Z,1008.90
2022-08-07T12:46:42.201Z,1008.92
2022-08-07T12:47:49.453Z,1008.92
2022-08-07T12:48:52.853Z,1008.88
2022-08-07T12:50:04.390Z,1008.87
2022-08-07T12:50:59.749Z,1008.86
2022-08-07T12:52:14.442Z,1008.84
2022-08-07T12:53:17.392Z,1008.88
2022-08-07T12:54:37.441Z,1008.89
2022-08-07T12:55:17.976Z,1008.89
2022-08-07T12:56:21.670Z,1008.87
2022-08-07T12:57:26.048Z,1008.92
2022-08-07T12:58:35.271Z,1008.89
2022-08-07T12:59:55.139Z,1008.85
2022-08-07T13:00:49.667Z,1008.84
2022-08-07T13:01:43.601Z,1008.87
2022-08-07T13:02:49.406Z,1008.85
2022-08-07T13:04:02.293Z,1008.86
2022-08-07T13:05:01.194Z,1008.82
2022-08-07T13:06:02.975Z,1008.79
2022-08-07T13:07:05.341Z,1008.77
2022-08-07T13:08:18.795Z,1008.77
2022-08-07T13:10:19.346Z,1008.72
2022-08-07T13:10:28.502Z,1008.74
2022-08-07T13:11:22.749Z,1008.72
2022-08-07T13:12:27.373Z,1008.67
2022-08-07T13:13:48.630Z,1008.69